Time;durP1;ratioP1;P1;durP2;ratioP2;P2;SDS_P1;SDS_P2;PMS_P1;PMS_P2;Temp;Humidity;BMP_temperature;BMP_pressure;BME280_temperature;BME280_humidity;BME280_pressure;Samples;Min_cycle;Max_cycle;Signal;HPM_P1;HPM_P2
2022/11/29 00:00:48;;;;;;;42.40;12.15;;;7.70;99.90;;;;;;6131723;19;19938;-65
2022/11/29 00:02:54;;;;;;;36.65;12.07;;;7.60;99.90;;;;;;6129827;19;19918;-65
2022/11/29 00:04:58;;;;;;;34.72;11.55;;;;;;;;;;6129986;19;20297;-65
2022/11/29 00:07:02;;;;;;;40.95;12.60;;;7.60;99.90;;;;;;6129696;19;20437;-65
2022/11/29 00:09:10;;;;;;;41.88;13.20;;;7.70;99.90;;;;;;6131894;19;19923;-65
2022/11/29 00:12:10;;;;;;;47.80;12.77;;;7.50;99.90;;;;;;6129881;19;20235;-65
2022/11/29 00:13:40;;;;;;;46.67;13.45;;;7.50;99.90;;;;;;6129766;19;19910;-65
2022/11/29 00:15:44;;;;;;;47.33;13.93;;;7.60;99.90;;;;;;6127578;19;20345;-65
2022/11/29 00:17:48;;;;;;;42.25;14.18;;;8.10;99.90;;;;;;6129950;19;19926;-65
2022/11/29 00:19:52;;;;;;;49.38;16.25;;;7.50;99.90;;;;;;6129711;19;19918;-65
2022/11/29 00:21:56;;;;;;;49.35;15.65;;;;;;;;;;6129337;19;19927;-65
2022/11/29 00:24:00;;;;;;;54.05;14.70;;;;;;;;;;6129676;19;20448;-64
2022/11/29 00:26:06;;;;;;;42.08;13.40;;;7.50;99.90;;;;;;6128538;19;20369;-64
2022/11/29 00:28:09;;;;;;;47.47;13.55;;;7.60;99.90;;;;;;6132038;19;20341;-64
2022/11/29 00:30:16;;;;;;;53.33;13.55;;;7.50;99.90;;;;;;6130304;19;20262;-66
2022/11/29 00:32:20;;;;;;;53.90;13.68;;;7.70;99.90;;;;;;6129249;19;19947;-64
2022/11/29 00:34:24;;;;;;;42.70;12.50;;;7.60;99.90;;;;;;6132776;19;19952;-65
2022/11/29 00:36:28;;;;;;;55.75;13.13;;;7.70;99.90;;;;;;6128967;19;20293;-65
2022/11/29 00:38:32;;;;;;;51.50;12.68;;;7.50;99.90;;;;;;6127417;19;19948;-65
2022/11/29 00:40:36;;;;;;;62.08;14.38;;;;;;;;;;6128901;19;20862;-65
2022/11/29 00:42:40;;;;;;;61.85;14.48;;;7.70;99.90;;;;;;6128751;19;19918;-65
2022/11/29 00:44:44;;;;;;;59.60;14.77;;;7.70;99.90;;;;;;6129132;19;19911;-65
2022/11/29 00:46:51;;;;;;;59.45;14.38;;;7.50;99.90;;;;;;6129123;19;19919;-66
2022/11/29 00:48:55;;;;;;;75.60;16.05;;;7.70;99.90;;;;;;6129064;19;19948;-65
2022/11/29 00:50:59;;;;;;;59.58;15.63;;;;;;;;;;6130095;19;19918;-65
2022/11/29 00:53:02;;;;;;;57.50;15.43;;;7.70;99.90;;;;;;6128916;19;20369;-65
2022/11/29 00:55:07;;;;;;;53.42;13.75;;;7.60;99.90;;;;;;6128929;19;19922;-65
2022/11/29 00:57:11;;;;;;;51.00;15.10;;;7.50;99.90;;;;;;6126495;19;19951;-65
2022/11/29 00:59:15;;;;;;;58.45;15.40;;;7.70;99.90;;;;;;6129152;19;19915;-65
2022/11/29 01:01:19;;;;;;;64.85;15.93;;;7.80;99.90;;;;;;6132014;19;19923;-65
2022/11/29 01:03:26;;;;;;;71.47;15.20;;;7.70;99.90;;;;;;6128478;19;20345;-65
2022/11/29 01:05:31;;;;;;;61.55;14.43;;;7.70;99.90;;;;;;6128673;19;19927;-65
2022/11/29 01:07:35;;;;;;;61.38;15.43;;;7.60;99.90;;;;;;6129000;19;19942;-65
2022/11/29 01:09:39;;;;;;;50.67;13.35;;;7.70;99.90;;;;;;6132317;19;20270;-65
2022/11/29 01:11:43;;;;;;;63.47;15.63;;;7.70;99.90;;;;;;6128558;19;20262;-65
2022/11/29 01:13:47;;;;;;;48.78;12.90;;;7.40;99.90;;;;;;6128793;19;19926;-65
2022/11/29 01:15:57;;;;;;;55.40;14.55;;;7.60;99.90;;;;;;6127311;19;19922;-65
2022/11/29 01:18:02;;;;;;;60.75;14.38;;;7.50;99.90;;;;;;6127072;19;20277;-65
2022/11/29 01:20:13;;;;;;;43.47;11.77;;;7.60;99.90;;;;;;6130962;19;19923;-65
2022/11/29 01:22:17;;;;;;;57.28;13.30;;;;;;;;;;6128311;19;19918;-65
2022/11/29 01:24:21;;;;;;;40.45;11.75;;;7.50;99.90;;;;;;6127728;19;19922;-65
2022/11/29 01:26:28;;;;;;;45.53;12.32;;;7.60;99.90;;;;;;6131026;19;19914;-65
2022/11/29 01:28:32;;;;;;;57.05;12.57;;;7.70;99.90;;;;;;6131281;19;20344;-65
2022/11/29 01:30:36;;;;;;;56.00;14.88;;;7.50;99.90;;;;;;6130044;19;19919;-64
2022/11/29 01:32:40;;;;;;;67.32;13.30;;;7.60;99.90;;;;;;6127936;19;20348;-64
2022/11/29 01:34:44;;;;;;;58.33;14.45;;;7.50;99.90;;;;;;6127133;19;19955;-65
2022/11/29 01:36:50;;;;;;;58.55;13.95;;;7.60;99.90;;;;;;6131291;19;19922;-65
2022/11/29 01:38:54;;;;;;;62.55;13.75;;;7.90;99.90;;;;;;6126029;19;20381;-66
2022/11/29 01:41:00;;;;;;;56.75;13.30;;;7.60;99.90;;;;;;6129071;19;19943;-65
2022/11/29 01:43:03;;;;;;;51.50;13.38;;;7.50;99.90;;;;;;6128930;19;20337;-65
2022/11/29 01:45:20;;;;;;;45.85;11.85;;;7.50;99.90;;;;;;6127576;19;20294;-65
2022/11/29 01:47:24;;;;;;;51.28;12.60;;;7.60;99.90;;;;;;6126428;19;19911;-64
2022/11/29 01:49:33;;;;;;;45.08;11.38;;;8.10;99.90;;;;;;6127926;19;19910;-64
2022/11/29 01:51:39;;;;;;;43.08;12.35;;;7.70;99.90;;;;;;6128101;19;19933;-65
2022/11/29 01:53:45;;;;;;;38.38;11.25;;;7.70;99.90;;;;;;6127692;19;19922;-65
2022/11/29 01:55:54;;;;;;;46.67;11.52;;;7.70;99.90;;;;;;6128328;19;20293;-66
2022/11/29 01:57:58;;;;;;;56.70;12.85;;;7.80;99.90;;;;;;6127302;19;20008;-65
2022/11/29 02:00:08;;;;;;;47.45;12.00;;;7.70;99.90;;;;;;6127446;19;19914;-65
2022/11/29 02:02:16;;;;;;;45.75;11.25;;;7.70;99.90;;;;;;6120278;19;20025;-65
2022/11/29 02:04:21;;;;;;;52.22;12.38;;;7.50;99.90;;;;;;6127478;19;19918;-65
2022/11/29 02:06:25;;;;;;;45.83;12.23;;;7.60;99.90;;;;;;6129246;19;19923;-65
2022/11/29 02:08:34;;;;;;;45.15;11.05;;;7.70;99.90;;;;;;6126128;19;19922;-65
2022/11/29 02:10:53;;;;;;;50.42;12.98;;;7.70;99.90;;;;;;6125567;19;19922;-64
2022/11/29 02:13:03;;;;;;;47.30;11.00;;;7.50;99.90;;;;;;6127170;19;19923;-64
2022/11/29 02:15:19;;;;;;;51.95;13.60;;;7.70;99.90;;;;;;6126838;19;19922;-65
2022/11/29 02:17:32;;;;;;;42.05;11.32;;;7.50;99.90;;;;;;6127657;19;19922;-64
2022/11/29 02:20:04;;;;;;;53.58;12.55;;;7.60;99.90;;;;;;6128258;19;19927;-64
2022/11/29 02:22:16;;;;;;;47.53;11.68;;;7.60;99.90;;;;;;6127990;19;19943;-65
2022/11/29 02:24:52;;;;;;;49.17;11.52;;;7.60;99.90;;;;;;6128910;19;19939;-65
2022/11/29 02:27:42;;;;;;;39.58;12.55;;;7.70;99.90;;;;;;6125567;19;20348;-64
2022/11/29 02:30:15;;;;;;;37.30;10.88;;;7.70;99.90;;;;;;6126280;19;19944;-65
2022/11/29 02:32:58;;;;;;;46.25;11.38;;;7.50;99.90;;;;;;6128704;19;20361;-65
2022/11/29 02:35:17;;;;;;;45.00;9.90;;;7.80;99.90;;;;;;6129160;19;19918;-65
2022/11/29 02:37:44;;;;;;;53.15;12.30;;;7.50;99.90;;;;;;6126751;19;19939;-65
2022/11/29 02:40:15;;;;;;;52.17;12.02;;;7.30;99.90;;;;;;6127735;19;19944;-65
2022/11/29 02:42:50;;;;;;;57.67;12.80;;;7.60;99.90;;;;;;6126701;19;19926;-65
2022/11/29 02:45:11;;;;;;;55.45;12.60;;;7.40;99.90;;;;;;6126916;19;19918;-65
2022/11/29 02:47:28;;;;;;;56.08;12.27;;;7.60;99.90;;;;;;6125892;19;19930;-65
2022/11/29 02:49:51;;;;;;;60.08;12.45;;;7.70;99.90;;;;;;6125560;19;19947;-65
2022/11/29 02:52:02;;;;;;;69.70;12.63;;;7.40;99.90;;;;;;6126306;19;19931;-65
2022/11/29 02:54:16;;;;;;;52.70;11.27;;;7.60;99.90;;;;;;6126219;19;19943;-65
2022/11/29 02:56:29;;;;;;;60.90;12.25;;;7.90;99.90;;;;;;6126190;19;19918;-68
2022/11/29 02:58:38;;;;;;;56.20;12.63;;;7.70;99.90;;;;;;6127632;19;19935;-65
2022/11/29 03:00:50;;;;;;;100.35;13.23;;;8.00;99.90;;;;;;6123567;19;19953;-65
2022/11/29 03:03:01;;;;;;;54.85;12.30;;;7.80;99.90;;;;;;6127090;19;19914;-65
2022/11/29 03:05:14;;;;;;;57.45;12.02;;;7.70;99.90;;;;;;6125709;19;19918;-65
2022/11/29 03:07:28;;;;;;;51.28;10.60;;;7.60;99.90;;;;;;6119843;19;20010;-66
2022/11/29 03:09:41;;;;;;;56.85;11.85;;;7.60;99.90;;;;;;6126330;19;19957;-66
2022/11/29 03:11:52;;;;;;;56.88;12.95;;;7.50;99.90;;;;;;6125484;19;19922;-66
2022/11/29 03:14:07;;;;;;;50.00;11.98;;;7.60;99.90;;;;;;6125502;19;19947;-65
2022/11/29 03:16:20;;;;;;;49.35;11.48;;;7.40;99.90;;;;;;6124289;19;20268;-65
2022/11/29 03:18:36;;;;;;;44.53;10.80;;;7.60;99.90;;;;;;6124215;19;19919;-65
2022/11/29 03:20:51;;;;;;;85.80;12.60;;;7.50;99.90;;;;;;6125244;19;19915;-65
2022/11/29 03:23:10;;;;;;;48.55;11.75;;;7.50;99.90;;;;;;6125319;19;19919;-65
2022/11/29 03:25:21;;;;;;;46.53;11.57;;;7.70;99.90;;;;;;6127943;19;19921;-66
2022/11/29 03:27:31;;;;;;;53.42;10.57;;;7.60;99.90;;;;;;6125400;19;19919;-65
2022/11/29 03:29:42;;;;;;;46.95;11.63;;;7.60;99.90;;;;;;6125564;19;19910;-65
2022/11/29 03:31:53;;;;;;;44.97;12.68;;;7.40;99.90;;;;;;6125311;19;19915;-66
2022/11/29 03:34:08;;;;;;;43.35;10.27;;;7.50;99.90;;;;;;6125578;19;19922;-66
2022/11/29 03:36:22;;;;;;;55.95;13.57;;;7.30;99.90;;;;;;6124103;19;19951;-66
2022/11/29 03:38:33;;;;;;;43.97;11.93;;;7.80;99.90;;;;;;6126206;19;20261;-65
2022/11/29 03:40:47;;;;;;;51.42;11.77;;;7.40;99.90;;;;;;6124965;19;19947;-65
2022/11/29 03:42:55;;;;;;;41.10;9.65;;;7.50;99.90;;;;;;6127209;19;19915;-65
2022/11/29 03:45:04;;;;;;;53.63;12.05;;;7.60;99.90;;;;;;6128158;19;20298;-65
2022/11/29 03:47:14;;;;;;;41.47;11.50;;;7.50;99.90;;;;;;6124879;19;19918;-65
2022/11/29 03:49:23;;;;;;;41.05;10.30;;;7.40;99.90;;;;;;6124973;19;19955;-68
2022/11/29 03:51:36;;;;;;;47.42;11.10;;;7.60;99.90;;;;;;6124724;19;20266;-67
2022/11/29 03:53:49;;;;;;;53.97;10.30;;;7.50;99.90;;;;;;6124662;19;20262;-66
2022/11/29 03:55:58;;;;;;;69.70;12.07;;;7.40;99.90;;;;;;6122241;19;20035;-66
2022/11/29 03:58:27;;;;;;;57.75;11.23;;;7.70;99.90;;;;;;6124166;19;19915;-65
2022/11/29 04:00:53;;;;;;;43.65;10.75;;;7.30;99.90;;;;;;6124143;19;19918;-66
2022/11/29 04:03:33;;;;;;;47.67;10.48;;;7.60;99.90;;;;;;6126458;19;19919;-66
2022/11/29 04:06:04;;;;;;;52.65;10.88;;;7.70;99.90;;;;;;6124096;19;19939;-66
2022/11/29 04:08:36;;;;;;;47.28;9.88;;;7.30;99.90;;;;;;6124161;19;19923;-66
2022/11/29 04:10:52;;;;;;;;;;;8.10;99.90;;;;;;6127512;19;19944;-67
2022/11/29 04:13:41;;;;;;;44.75;10.80;;;7.20;99.90;;;;;;6129740;19;19959;-66
2022/11/29 04:16:07;;;;;;;52.75;10.95;;;7.80;99.90;;;;;;6126664;19;19919;-67
2022/11/29 04:18:49;;;;;;;39.38;10.82;;;7.70;99.90;;;;;;6129185;19;19922;-66
2022/11/29 04:21:14;;;;;;;57.90;11.93;;;7.60;99.90;;;;;;6129587;19;20286;-66
2022/11/29 04:23:53;;;;;;;40.78;9.88;;;7.60;99.90;;;;;;6129571;19;19942;-66
2022/11/29 04:26:29;;;;;;;53.03;11.00;;;7.50;99.90;;;;;;6128241;19;19923;-66
2022/11/29 04:29:07;;;;;;;48.10;11.50;;;7.60;99.90;;;;;;6129732;19;19918;-66
2022/11/29 04:31:21;;;;;;;55.65;11.02;;;7.60;99.90;;;;;;6128307;19;19918;-66
2022/11/29 04:33:54;;;;;;;60.78;11.75;;;7.50;99.90;;;;;;6132358;19;19935;-66
2022/11/29 04:36:32;;;;;;;46.45;11.57;;;7.50;99.90;;;;;;6129243;19;19922;-65
2022/11/29 04:38:59;;;;;;;;;;;7.60;99.90;;;;;;6129417;19;19943;-66
2022/11/29 04:41:20;;;;;;;42.83;10.40;;;6.90;99.90;;;;;;6128048;19;20333;-66
2022/11/29 04:43:44;;;;;;;40.47;10.23;;;7.20;99.90;;;;;;6129444;19;19918;-66
2022/11/29 04:46:24;;;;;;;46.90;10.43;;;7.30;99.90;;;;;;6128856;19;20519;-67
2022/11/29 04:48:57;;;;;;;42.92;10.90;;;7.60;99.90;;;;;;6128124;19;19918;-66
2022/11/29 04:51:11;;;;;;;33.88;9.80;;;7.30;99.90;;;;;;6128227;19;20266;-66
2022/11/29 04:53:53;;;;;;;33.88;9.40;;;7.50;99.90;;;;;;6128829;19;19911;-66
2022/11/29 04:56:07;;;;;;;29.02;9.10;;;7.90;99.90;;;;;;6127338;19;19914;-66
2022/11/29 04:58:20;;;;;;;31.10;9.43;;;7.60;99.90;;;;;;6128804;19;19914;-66
2022/11/29 05:00:26;;;;;;;31.65;9.10;;;7.30;99.90;;;;;;6128659;19;19918;-65
2022/11/29 05:02:36;;;;;;;28.83;8.73;;;7.30;99.90;;;;;;6128528;19;19914;-65
2022/11/29 05:04:52;;;;;;;31.83;9.30;;;7.50;99.90;;;;;;6131128;19;19930;-65
2022/11/29 05:07:04;;;;;;;29.60;8.90;;;7.30;99.90;;;;;;6131181;19;19918;-66
2022/11/29 05:09:16;;;;;;;26.85;7.60;;;7.40;99.90;;;;;;6129049;19;19929;-65
2022/11/29 05:11:30;;;;;;;34.95;8.82;;;7.30;99.90;;;;;;6129089;19;19915;-65
2022/11/29 05:13:46;;;;;;;28.27;8.82;;;7.30;99.90;;;;;;6131215;19;20228;-64
2022/11/29 05:16:14;;;;;;;29.50;9.32;;;7.20;99.90;;;;;;6128720;19;19925;-65
2022/11/29 05:18:28;;;;;;;25.15;8.68;;;7.60;99.90;;;;;;6129150;19;20256;-64
2022/11/29 05:20:44;;;;;;;29.58;8.75;;;7.30;99.90;;;;;;6126469;19;19995;-65
2022/11/29 05:23:03;;;;;;;25.23;7.57;;;7.30;99.90;;;;;;6122135;19;19959;-65
2022/11/29 05:25:36;;;;;;;28.73;7.65;;;7.40;99.90;;;;;;6128143;19;19919;-64
2022/11/29 05:27:46;;;;;;;20.70;7.28;;;7.50;99.90;;;;;;6127382;19;19918;-64
2022/11/29 05:30:01;;;;;;;24.35;8.32;;;7.20;99.90;;;;;;6128226;19;19918;-64
2022/11/29 05:32:21;;;;;;;29.02;8.25;;;7.40;99.90;;;;;;6128832;19;19926;-64
2022/11/29 05:34:34;;;;;;;;;;;7.40;99.90;;;;;;6132388;19;20355;-65
2022/11/29 05:36:42;;;;;;;25.23;8.68;;;6.90;99.90;;;;;;6130112;19;19925;-65
2022/11/29 05:38:58;;;;;;;29.92;9.75;;;7.60;99.90;;;;;;6129910;19;19918;-65
2022/11/29 05:41:18;;;;;;;21.27;8.18;;;7.00;99.90;;;;;;6126427;19;19914;-65
2022/11/29 05:43:55;;;;;;;27.92;8.10;;;7.60;99.90;;;;;;6128096;19;19929;-65
2022/11/29 05:46:09;;;;;;;31.80;7.85;;;7.40;99.90;;;;;;6126592;19;19943;-65
2022/11/29 05:48:22;;;;;;;27.10;7.80;;;7.00;99.90;;;;;;6127806;19;19944;-66
2022/11/29 05:50:33;;;;;;;23.27;7.50;;;7.30;99.90;;;;;;6127553;19;19939;-65
2022/11/29 05:52:49;;;;;;;24.80;7.85;;;7.50;99.90;;;;;;6125716;19;19922;-65
2022/11/29 05:55:04;;;;;;;21.38;8.23;;;7.20;99.90;;;;;;6127854;19;19911;-65
2022/11/29 05:57:16;;;;;;;24.98;7.38;;;7.50;99.90;;;;;;6126948;19;19943;-65
2022/11/29 05:59:24;;;;;;;19.20;7.75;;;7.60;99.90;;;;;;6126963;19;19943;-65
2022/11/29 06:01:37;;;;;;;21.42;7.50;;;7.20;99.90;;;;;;6125465;19;20323;-65
2022/11/29 06:03:52;;;;;;;30.15;8.40;;;7.30;99.90;;;;;;6131060;19;19926;-65
2022/11/29 06:06:00;;;;;;;23.50;8.10;;;7.20;99.90;;;;;;6129552;19;19943;-66
2022/11/29 06:08:09;;;;;;;22.50;8.38;;;7.20;99.90;;;;;;6127810;19;19922;-65
2022/11/29 06:10:16;;;;;;;24.55;7.28;;;7.10;99.90;;;;;;6126259;19;19921;-66
2022/11/29 06:12:23;;;;;;;22.02;8.05;;;7.20;99.90;;;;;;6126262;19;19927;-65
2022/11/29 06:14:55;;;;;;;24.75;8.75;;;7.40;99.90;;;;;;6129640;19;19914;-66
2022/11/29 06:17:10;;;;;;;;;;;7.40;99.90;;;;;;6126738;19;20484;-66
2022/11/29 06:19:43;;;;;;;22.90;7.78;;;6.90;99.90;;;;;;6117737;19;19924;-65
2022/11/29 06:21:58;;;;;;;27.67;8.90;;;7.50;99.90;;;;;;6126356;19;20392;-64
2022/11/29 06:24:19;;;;;;;22.60;8.15;;;7.30;99.90;;;;;;6128281;19;20345;-64
2022/11/29 06:26:48;;;;;;;29.27;8.98;;;7.70;99.90;;;;;;6126435;19;20352;-64
2022/11/29 06:29:03;;;;;;;26.65;8.43;;;7.10;99.90;;;;;;6122027;19;20010;-64
2022/11/29 06:31:16;;;;;;;24.63;8.35;;;7.30;99.90;;;;;;6126193;19;19927;-64
2022/11/29 06:33:26;;;;;;;22.90;9.07;;;7.40;99.90;;;;;;6126540;19;19953;-64
2022/11/29 06:35:44;;;;;;;24.65;9.35;;;7.30;99.90;;;;;;6126693;19;19922;-64
2022/11/29 06:37:53;;;;;;;22.60;8.50;;;7.20;99.90;;;;;;6127576;19;20431;-64
2022/11/29 06:39:57;;;;;;;19.20;8.48;;;7.50;99.90;;;;;;6123886;19;19919;-64
2022/11/29 06:42:01;;;;;;;25.05;8.23;;;7.10;99.90;;;;;;6126604;19;19919;-65
2022/11/29 06:44:06;;;;;;;29.00;9.73;;;;;;;;;;6125398;19;19915;-64
2022/11/29 06:46:20;;;;;;;24.60;8.52;;;7.40;99.90;;;;;;6124467;19;19922;-65
2022/11/29 06:48:29;;;;;;;29.90;9.70;;;7.20;99.90;;;;;;6123557;19;19918;-64
2022/11/29 06:50:42;;;;;;;28.83;9.55;;;6.90;99.90;;;;;;6126033;19;19922;-64
2022/11/29 06:52:53;;;;;;;31.83;9.40;;;7.20;99.90;;;;;;6126391;19;19935;-64
2022/11/29 06:55:12;;;;;;;23.58;9.10;;;7.40;99.90;;;;;;6125010;19;19923;-65
2022/11/29 06:57:25;;;;;;;23.00;7.90;;;7.70;99.90;;;;;;6125171;19;19925;-65
2022/11/29 06:59:43;;;;;;;23.15;8.77;;;6.80;99.90;;;;;;6127188;19;19922;-65
2022/11/29 07:01:58;;;;;;;26.20;9.15;;;7.10;99.90;;;;;;6124535;19;20329;-65
2022/11/29 07:04:21;;;;;;;25.60;8.65;;;7.00;99.90;;;;;;6122645;19;19955;-66
2022/11/29 07:06:28;;;;;;;27.05;10.05;;;7.50;99.90;;;;;;6127963;19;19918;-65
2022/11/29 07:08:32;;;;;;;23.33;8.80;;;7.00;99.90;;;;;;6125592;19;19923;-65
2022/11/29 07:10:39;;;;;;;32.47;9.15;;;7.00;99.90;;;;;;6128873;19;19918;-65
2022/11/29 07:12:44;;;;;;;27.05;8.60;;;7.30;99.90;;;;;;6125687;19;19954;-65
2022/11/29 07:14:48;;;;;;;29.38;10.07;;;7.40;99.90;;;;;;6125059;19;19915;-65
2022/11/29 07:16:58;;;;;;;26.52;9.20;;;7.10;99.90;;;;;;6126049;19;19921;-64
2022/11/29 07:19:12;;;;;;;28.15;9.85;;;7.50;99.90;;;;;;6125148;19;19915;-65
2022/11/29 07:21:26;;;;;;;25.65;9.60;;;7.00;99.90;;;;;;6125807;19;20274;-65
2022/11/29 07:23:36;;;;;;;24.27;9.10;;;7.10;99.90;;;;;;6125081;19;20290;-64
2022/11/29 07:25:50;;;;;;;24.55;9.48;;;6.70;99.90;;;;;;6127791;19;20245;-65
2022/11/29 07:28:02;;;;;;;29.45;10.18;;;7.10;99.90;;;;;;6125115;19;20274;-65
2022/11/29 07:30:12;;;;;;;22.77;9.35;;;6.70;99.90;;;;;;6128686;19;19918;-64
2022/11/29 07:32:22;;;;;;;26.52;9.07;;;7.00;99.90;;;;;;6125489;19;19922;-65
2022/11/29 07:34:34;;;;;;;28.80;10.68;;;7.30;99.90;;;;;;6126456;19;19933;-64
2022/11/29 07:36:51;;;;;;;19.92;7.80;;;7.30;99.90;;;;;;6123728;19;20320;-65
2022/11/29 07:39:06;;;;;;;24.45;9.23;;;7.10;99.90;;;;;;6123863;19;20258;-65
2022/11/29 07:41:16;;;;;;;29.48;9.07;;;6.70;99.90;;;;;;6123165;19;19918;-65
2022/11/29 07:43:28;;;;;;;25.25;8.35;;;6.50;99.90;;;;;;6125110;19;19918;-65
2022/11/29 07:45:35;;;;;;;20.85;9.15;;;6.90;99.90;;;;;;6120275;19;20516;-65
2022/11/29 07:47:39;;;;;;;23.77;8.70;;;7.10;99.90;;;;;;6133039;19;20292;-65
2022/11/29 07:49:43;;;;;;;20.67;8.30;;;7.20;99.90;;;;;;6128900;19;20600;-65
2022/11/29 07:51:50;;;;;;;24.30;8.75;;;7.00;99.90;;;;;;6132619;19;19918;-64
2022/11/29 07:53:54;;;;;;;21.55;7.72;;;7.20;99.90;;;;;;6130241;19;19976;-65
2022/11/29 07:55:59;;;;;;;19.83;7.78;;;7.00;99.90;;;;;;6131188;19;19922;-65
2022/11/29 07:58:02;;;;;;;19.20;7.97;;;7.20;99.90;;;;;;6131460;19;20230;-65
2022/11/29 08:00:08;;;;;;;24.15;8.13;;;6.90;99.90;;;;;;6126251;19;19925;-71
2022/11/29 08:02:13;;;;;;;21.23;8.13;;;7.00;99.90;;;;;;6112276;19;19914;-75
2022/11/29 08:04:17;;;;;;;21.80;7.93;;;;;;;;;;6124608;19;19926;-75
2022/11/29 08:06:26;;;;;;;20.02;7.57;;;7.10;99.90;;;;;;6130047;19;19918;-74
2022/11/29 08:08:33;;;;;;;21.58;7.30;;;7.00;99.90;;;;;;6126862;19;19927;-71
2022/11/29 08:10:37;;;;;;;23.60;8.35;;;7.10;99.90;;;;;;6127311;19;19922;-72
2022/11/29 08:12:45;;;;;;;21.00;8.65;;;7.10;99.90;;;;;;6132086;19;19914;-75
2022/11/29 08:14:49;;;;;;;20.83;8.00;;;6.90;99.90;;;;;;6130031;19;19945;-75
2022/11/29 08:16:53;;;;;;;26.80;8.35;;;6.70;99.90;;;;;;6130097;19;19919;-78
2022/11/29 08:18:57;;;;;;;19.50;8.93;;;7.10;99.90;;;;;;6130833;19;20018;-73
2022/11/29 08:21:01;;;;;;;21.60;7.50;;;;;;;;;;6128214;19;19927;-75
2022/11/29 08:23:05;;;;;;;18.30;7.68;;;6.90;99.90;;;;;;6132154;19;19923;-76
2022/11/29 08:25:12;;;;;;;24.58;9.05;;;7.20;99.90;;;;;;6130073;19;19922;-75
2022/11/29 08:27:17;;;;;;;18.63;7.85;;;;;;;;;;6130253;19;20337;-74
2022/11/29 08:29:21;;;;;;;22.25;7.43;;;7.10;99.90;;;;;;6131631;19;19951;-74
2022/11/29 08:31:25;;;;;;;20.13;7.75;;;7.40;99.90;;;;;;6130507;19;19933;-74
2022/11/29 08:33:29;;;;;;;19.02;7.80;;;;;;;;;;6132223;19;20381;-73
2022/11/29 08:35:33;;;;;;;20.23;7.95;;;7.40;99.90;;;;;;6131817;19;19922;-73
2022/11/29 08:37:37;;;;;;;23.13;7.50;;;;;;;;;;6130714;19;19947;-75
2022/11/29 08:39:41;;;;;;;20.33;7.95;;;7.30;99.90;;;;;;6128297;19;19926;-71
2022/11/29 08:41:47;;;;;;;19.65;7.97;;;7.50;99.90;;;;;;6128536;19;19923;-73
2022/11/29 08:43:51;;;;;;;24.35;8.52;;;;;;;;;;6129855;19;20410;-75
2022/11/29 08:45:55;;;;;;;20.75;8.07;;;7.20;99.90;;;;;;6131899;19;20261;-74
2022/11/29 08:47:59;;;;;;;18.52;8.45;;;7.20;99.90;;;;;;6130799;19;19911;-76
2022/11/29 08:50:03;;;;;;;24.45;9.27;;;7.70;99.90;;;;;;6132314;19;19919;-75
2022/11/29 08:54:23;;;;;;;23.45;8.27;;;7.30;99.90;;;;;;6128611;19;19935;-75
2022/11/29 08:56:27;;;;;;;25.30;8.95;;;7.20;99.90;;;;;;6126027;19;20031;-75
2022/11/29 08:58:34;;;;;;;22.52;10.02;;;7.60;99.90;;;;;;6126645;19;19922;-75
2022/11/29 09:00:38;;;;;;;19.88;8.43;;;7.50;99.90;;;;;;6128903;19;20261;-76
2022/11/29 09:02:42;;;;;;;23.77;9.02;;;7.60;99.90;;;;;;6130576;19;19939;-70
2022/11/29 09:04:46;;;;;;;24.83;8.43;;;7.40;99.90;;;;;;6129158;19;19921;-67
2022/11/29 09:06:50;;;;;;;20.30;8.40;;;7.60;99.90;;;;;;6129274;19;19911;-65
2022/11/29 09:08:56;;;;;;;21.45;7.88;;;7.50;99.90;;;;;;6125118;19;19918;-73
2022/11/29 09:11:00;;;;;;;18.63;7.90;;;7.30;99.90;;;;;;6131115;19;19914;-74
2022/11/29 09:13:04;;;;;;;21.23;7.50;;;7.30;99.90;;;;;;6127648;19;20294;-72
2022/11/29 09:15:12;;;;;;;23.33;8.57;;;7.30;99.90;;;;;;6129084;19;19925;-73
2022/11/29 09:17:16;;;;;;;20.77;8.02;;;7.60;99.90;;;;;;6126637;19;20349;-71
2022/11/29 09:19:20;;;;;;;19.00;7.28;;;7.50;99.90;;;;;;6128260;19;20417;-71
2022/11/29 09:21:25;;;;;;;21.30;7.93;;;7.10;99.90;;;;;;6124585;19;20364;-71
2022/11/29 09:23:29;;;;;;;21.45;7.88;;;7.60;99.90;;;;;;6130102;19;20348;-71
2022/11/29 09:25:33;;;;;;;22.13;8.45;;;7.40;99.90;;;;;;6127998;19;19918;-71
2022/11/29 09:27:40;;;;;;;19.50;7.43;;;7.30;99.90;;;;;;6126910;19;19941;-78
2022/11/29 09:29:44;;;;;;;16.60;8.23;;;7.50;99.90;;;;;;6130159;19;19934;-75
2022/11/29 09:31:50;;;;;;;20.58;7.30;;;7.70;99.90;;;;;;6126510;19;19922;-76
2022/11/29 09:33:56;;;;;;;21.20;8.13;;;7.40;99.90;;;;;;6130131;19;19929;-77
2022/11/29 09:36:00;;;;;;;19.77;7.82;;;7.80;99.90;;;;;;6126923;19;19919;-71
2022/11/29 09:38:04;;;;;;;19.15;7.10;;;7.40;99.90;;;;;;6127560;19;19929;-73
2022/11/29 09:40:15;;;;;;;18.27;7.55;;;7.40;99.90;;;;;;6128510;19;19939;-72
2022/11/29 09:42:44;;;;;;;21.70;6.75;;;7.50;99.90;;;;;;6127960;19;19926;-72
2022/11/29 09:45:02;;;;;;;19.48;7.35;;;7.30;99.90;;;;;;6128569;19;20257;-64
2022/11/29 09:47:26;;;;;;;19.20;7.15;;;7.30;99.90;;;;;;6126702;19;20005;-65
2022/11/29 09:49:56;;;;;;;16.65;6.07;;;7.60;99.90;;;;;;6130217;19;19918;-76
2022/11/29 09:52:07;;;;;;;16.67;6.63;;;7.60;99.90;;;;;;6137901;19;19950;-75
2022/11/29 09:54:24;;;;;;;17.08;6.40;;;7.60;99.90;;;;;;6136485;19;20386;-75
2022/11/29 09:56:35;;;;;;;16.20;6.47;;;7.60;99.90;;;;;;6130160;19;20276;-76
2022/11/29 09:58:45;;;;;;;17.90;7.60;;;7.60;99.90;;;;;;6127646;19;19922;-76
2022/11/29 10:00:52;;;;;;;13.65;6.60;;;7.80;99.90;;;;;;6125428;19;19958;-75
2022/11/29 10:03:03;;;;;;;18.42;6.25;;;7.70;99.90;;;;;;6125652;19;19918;-74
2022/11/29 10:05:13;;;;;;;12.52;5.28;;;7.40;99.90;;;;;;6122912;19;19922;-66
2022/11/29 10:07:22;;;;;;;14.65;5.80;;;7.70;99.90;;;;;;6126061;19;19918;-72
2022/11/29 10:09:31;;;;;;;14.52;5.90;;;6.90;99.90;;;;;;6126166;19;20406;-71
2022/11/29 10:11:39;;;;;;;11.77;6.00;;;7.80;99.90;;;;;;6125786;19;19960;-68
2022/11/29 10:13:48;;;;;;;18.77;6.35;;;7.40;99.90;;;;;;6124393;19;20276;-74
2022/11/29 10:15:56;;;;;;;11.45;5.70;;;7.40;99.90;;;;;;6124683;19;19923;-74
2022/11/29 10:18:06;;;;;;;13.60;5.85;;;7.70;99.90;;;;;;6126668;19;19920;-76
2022/11/29 10:20:17;;;;;;;14.13;5.97;;;7.80;99.90;;;;;;6128476;19;19926;-75
2022/11/29 10:22:27;;;;;;;14.52;6.40;;;7.70;99.90;;;;;;6127849;19;19922;-76
2022/11/29 10:24:33;;;;;;;17.75;6.28;;;7.70;99.90;;;;;;6125116;19;19919;-75
2022/11/29 10:26:36;;;;;;;16.15;6.47;;;7.40;99.90;;;;;;6125181;19;19940;-74
2022/11/29 10:28:47;;;;;;;15.30;6.95;;;7.60;99.90;;;;;;6125132;19;19918;-75
2022/11/29 10:30:52;;;;;;;17.48;6.53;;;7.30;99.90;;;;;;6129440;19;19919;-75
2022/11/29 10:32:59;;;;;;;15.73;6.43;;;7.40;99.90;;;;;;6125104;19;19918;-73
2022/11/29 10:35:13;;;;;;;17.52;6.88;;;8.00;99.90;;;;;;6123962;19;19921;-75
2022/11/29 10:37:20;;;;;;;16.23;5.88;;;7.50;99.90;;;;;;6128712;19;19911;-75
2022/11/29 10:39:29;;;;;;;12.38;5.82;;;7.80;99.90;;;;;;6125035;19;19911;-74
2022/11/29 10:41:34;;;;;;;14.05;6.35;;;7.80;99.90;;;;;;6126586;19;19926;-75
2022/11/29 10:43:39;;;;;;;17.25;6.28;;;7.90;99.90;;;;;;6125196;19;19934;-81
2022/11/29 10:45:49;;;;;;;13.88;6.40;;;7.80;99.90;;;;;;6125491;19;19923;-76
2022/11/29 10:47:55;;;;;;;17.20;6.53;;;7.80;99.90;;;;;;6125828;19;20339;-84
2022/11/29 10:49:59;;;;;;;19.70;7.30;;;8.10;99.90;;;;;;6124755;19;20290;-76
2022/11/29 10:52:07;;;;;;;16.05;6.68;;;7.90;99.90;;;;;;6125112;19;20018;-77
2022/11/29 10:54:25;;;;;;;13.32;6.40;;;7.90;99.90;;;;;;6125793;19;19921;-77
2022/11/29 10:56:36;;;;;;;16.20;6.97;;;6.20;99.90;;;;;;6124668;19;20350;-65
2022/11/29 10:58:56;;;;;;;14.27;5.85;;;8.50;99.90;;;;;;6124853;19;19918;-77
2022/11/29 11:01:01;;;;;;;13.80;6.20;;;8.30;99.90;;;;;;6124281;19;20392;-79
2022/11/29 11:03:18;;;;;;;21.30;7.15;;;8.10;99.90;;;;;;6125762;19;19927;-82
2022/11/29 11:05:28;;;;;;;15.18;6.45;;;8.30;99.90;;;;;;6124438;19;19925;-78
2022/11/29 11:07:37;;;;;;;15.05;6.40;;;8.10;99.90;;;;;;6125568;19;19922;-79
2022/11/29 11:09:44;;;;;;;17.13;8.20;;;8.10;99.90;;;;;;6125236;19;19923;-65
2022/11/29 11:11:53;;;;;;;29.92;13.70;;;7.80;99.90;;;;;;6124403;19;19927;-65
2022/11/29 11:14:02;;;;;;;30.00;12.02;;;8.20;99.90;;;;;;6127923;19;19918;-66
2022/11/29 11:16:18;;;;;;;16.40;7.15;;;8.10;99.90;;;;;;6124010;19;20448;-66
2022/11/29 11:18:24;;;;;;;31.02;12.70;;;8.00;99.90;;;;;;6126573;19;19933;-65
2022/11/29 11:20:30;;;;;;;17.08;8.10;;;8.10;99.90;;;;;;6122552;19;19922;-66
2022/11/29 11:22:39;;;;;;;16.80;7.28;;;8.00;99.90;;;;;;6127781;19;20256;-65
2022/11/29 11:24:45;;;;;;;17.23;7.97;;;8.10;99.90;;;;;;6127548;19;19954;-67
2022/11/29 11:26:49;;;;;;;19.83;9.77;;;7.60;99.90;;;;;;6129142;19;20333;-69
2022/11/29 11:28:58;;;;;;;19.33;7.78;;;7.80;99.90;;;;;;6133028;19;19907;-68